createdAt,value
2023-05-31T00:00:18.016Z,55.4
2023-05-31T00:05:17.857Z,55.4
2023-05-31T00:10:17.815Z,55.5
2023-05-31T00:15:17.934Z,55.6
2023-05-31T00:20:18.089Z,55.6
2023-05-31T00:25:17.990Z,55.7
2023-05-31T00:30:17.898Z,55.7
2023-05-31T00:35:17.979Z,55.7
2023-05-31T00:40:17.879Z,55.8
2023-05-31T00:45:18.515Z,55.9
2023-05-31T00:50:18.172Z,56.0
2023-05-31T00:55:18.052Z,56.0
2023-05-31T01:00:18.178Z,55.9
2023-05-31T01:05:17.828Z,55.9
2023-05-31T01:10:17.938Z,55.9
2023-05-31T01:15:18.228Z,55.8
2023-05-31T01:20:18.155Z,55.8
2023-05-31T01:25:19.343Z,55.8
2023-05-31T01:30:17.891Z,55.8
2023-05-31T01:35:17.950Z,55.7
2023-05-31T01:40:17.827Z,55.7
2023-05-31T01:45:18.194Z,55.6
2023-05-31T01:50:18.081Z,55.6
2023-05-31T01:55:17.804Z,55.6
2023-05-31T02:00:18.058Z,55.6
2023-05-31T02:05:17.995Z,55.6
2023-05-31T02:10:18.018Z,55.6
2023-05-31T02:15:18.076Z,55.7
2023-05-31T02:20:17.991Z,55.6
2023-05-31T02:25:17.888Z,55.6
2023-05-31T02:30:18.348Z,55.5
2023-05-31T02:35:17.999Z,55.6
2023-05-31T02:40:17.865Z,55.6
2023-05-31T02:45:17.959Z,55.6
2023-05-31T02:50:17.965Z,55.6
2023-05-31T02:55:18.188Z,55.6
2023-05-31T03:00:18.050Z,55.5
2023-05-31T03:05:17.978Z,55.5
2023-05-31T03:10:18.271Z,55.4
2023-05-31T03:15:18.154Z,55.4
2023-05-31T03:20:18.220Z,55.3
2023-05-31T03:25:19.005Z,55.2
2023-05-31T03:30:18.157Z,55.2
2023-05-31T03:35:18.159Z,55.2
2023-05-31T03:40:18.203Z,55.2
2023-05-31T03:45:18.820Z,55.2
2023-05-31T03:50:18.172Z,55.1
2023-05-31T03:55:18.145Z,55.1
2023-05-31T04:00:17.986Z,55.0
2023-05-31T04:05:18.256Z,54.9
2023-05-31T04:10:17.756Z,54.7
2023-05-31T04:15:17.916Z,54.6
2023-05-31T04:20:18.298Z,54.4
2023-05-31T04:25:17.622Z,54.3
2023-05-31T04:30:17.753Z,54.2
2023-05-31T04:35:17.838Z,54.0
2023-05-31T04:40:17.870Z,54.0
2023-05-31T04:45:17.859Z,53.9
2023-05-31T04:50:18.066Z,53.7
2023-05-31T04:55:17.868Z,53.6
2023-05-31T05:00:18.168Z,53.4
2023-05-31T05:05:17.773Z,53.5
2023-05-31T05:10:17.796Z,53.4
2023-05-31T05:15:17.907Z,53.4
2023-05-31T05:20:17.775Z,53.4
2023-05-31T05:25:19.215Z,53.3
2023-05-31T05:30:18.285Z,53.4
2023-05-31T05:35:17.694Z,53.3
2023-05-31T05:40:17.874Z,53.3
2023-05-31T05:45:17.774Z,53.2
2023-05-31T05:50:17.772Z,53.3
2023-05-31T05:55:17.802Z,53.3
2023-05-31T06:00:18.107Z,53.1
2023-05-31T06:05:17.886Z,53.1
2023-05-31T06:10:17.819Z,53.2
2023-05-31T06:15:17.926Z,53.2
2023-05-31T06:20:17.817Z,53.1
2023-05-31T06:25:17.838Z,53.2
2023-05-31T06:30:17.879Z,53.1
2023-05-31T06:35:17.905Z,53.1
2023-05-31T06:40:17.883Z,53.1
2023-05-31T06:45:17.778Z,53.1
2023-05-31T06:50:17.829Z,53.2
2023-05-31T06:55:17.717Z,53.1
2023-05-31T07:00:17.727Z,53.1
2023-05-31T07:05:17.879Z,53.2
2023-05-31T07:10:17.905Z,53.2
2023-05-31T07:15:17.814Z,53.3
2023-05-31T07:20:17.950Z,53.2
2023-05-31T07:25:18.716Z,53.3
2023-05-31T07:30:18.102Z,53.2
2023-05-31T07:35:17.963Z,53.1
2023-05-31T07:40:19.814Z,53.1
2023-05-31T07:45:17.777Z,53.0
2023-05-31T07:50:17.983Z,53.0
2023-05-31T07:55:17.866Z,53.0
2023-05-31T08:00:18.044Z,52.9
2023-05-31T08:05:17.875Z,52.9
2023-05-31T08:10:17.816Z,53.0
2023-05-31T08:15:18.114Z,52.9
2023-05-31T08:20:17.888Z,52.8
2023-05-31T08:25:17.978Z,52.8
2023-05-31T08:30:18.009Z,52.7
2023-05-31T08:35:17.869Z,52.7
2023-05-31T08:40:17.861Z,52.9
2023-05-31T08:45:18.225Z,52.8
2023-05-31T08:50:18.178Z,52.8
2023-05-31T08:55:17.904Z,52.7
2023-05-31T09:00:17.917Z,52.8
2023-05-31T09:05:17.916Z,52.8
2023-05-31T09:10:17.863Z,52.9
2023-05-31T09:15:17.876Z,52.9
2023-05-31T09:20:17.880Z,52.9
2023-05-31T09:25:19.187Z,52.9
2023-05-31T09:30:17.878Z,53.0
2023-05-31T09:35:17.765Z,53.2
2023-05-31T09:40:17.892Z,53.2
2023-05-31T09:45:18.006Z,53.2
2023-05-31T09:50:17.989Z,53.2
2023-05-31T09:55:18.017Z,53.0
2023-05-31T10:00:18.531Z,53.1
2023-05-31T10:05:17.833Z,53.1
2023-05-31T10:10:17.894Z,53.2
2023-05-31T10:15:17.988Z,53.2
2023-05-31T10:20:17.934Z,53.2
2023-05-31T10:25:17.894Z,53.3
2023-05-31T10:50:18.021Z,53.9
2023-05-31T10:55:17.918Z,53.8
2023-05-31T11:00:18.058Z,53.9
2023-05-31T11:05:18.264Z,53.5
2023-05-31T11:10:18.163Z,53.0
2023-05-31T11:15:18.330Z,52.2
2023-05-31T11:20:18.113Z,51.6
2023-05-31T11:25:18.936Z,51.2
2023-05-31T11:30:18.300Z,51.3
2023-05-31T11:35:18.100Z,51.3
2023-05-31T11:40:18.133Z,51.2
2023-05-31T11:45:18.662Z,51.0
2023-05-31T11:50:18.089Z,51.0
2023-05-31T11:55:18.094Z,51.0
2023-05-31T12:00:18.186Z,51.0
2023-05-31T12:05:18.364Z,51.2
2023-05-31T12:10:18.316Z,51.0
2023-05-31T12:25:23.167Z,50.7
2023-05-31T12:30:30.672Z,50.9
2023-05-31T12:35:17.565Z,50.7
2023-05-31T12:40:17.614Z,51.0
2023-05-31T12:45:17.673Z,51.0
2023-05-31T12:50:17.783Z,51.2
2023-05-31T12:55:17.749Z,51.3
2023-05-31T13:00:17.733Z,51.5
2023-05-31T13:05:17.570Z,51.6
2023-05-31T13:10:17.573Z,52.3
2023-05-31T13:15:17.554Z,52.3
2023-05-31T13:20:17.751Z,52.7
2023-05-31T13:25:18.948Z,52.8
2023-05-31T13:30:17.950Z,52.9
2023-05-31T13:35:17.676Z,53.1
2023-05-31T13:40:17.463Z,53.3
2023-05-31T13:45:17.684Z,52.9
2023-05-31T13:50:17.534Z,52.9
2023-05-31T13:55:17.399Z,52.7
2023-05-31T16:03:37.035Z,54.2
2023-05-31T16:04:43.765Z,54.3
2023-05-31T16:04:44.823Z,54.4
2023-05-31T16:04:45.974Z,54.4
2023-05-31T16:04:46.899Z,54.8
2023-05-31T16:04:47.943Z,55.0
2023-05-31T16:04:48.819Z,55.2
2023-05-31T16:05:45.724Z,56.1
2023-05-31T16:05:46.465Z,56.3
2023-05-31T16:05:47.211Z,56.2
2023-05-31T16:05:48.042Z,56.5
2023-05-31T17:12:53.192Z,56.5
2023-05-31T17:13:03.329Z,56.6
2023-05-31T17:13:10.113Z,54.0
2023-05-31T17:13:13.117Z,53.9
2023-05-31T17:14:19.876Z,54.0
2023-05-31T17:14:21.127Z,54.0
2023-05-31T17:14:22.789Z,54.2
2023-05-31T17:14:24.275Z,54.3
2023-05-31T17:14:25.536Z,54.4
2023-05-31T17:14:27.581Z,54.4
2023-05-31T17:15:25.406Z,55.5
2023-05-31T17:15:26.628Z,55.7
2023-05-31T17:15:27.574Z,55.8
2023-05-31T17:15:28.608Z,56.1
2023-05-31T17:15:29.666Z,56.3
2023-05-31T17:15:30.996Z,56.2
2023-05-31T17:20:17.348Z,57.7
2023-05-31T17:25:17.460Z,57.7
2023-05-31T17:30:17.596Z,57.8
2023-05-31T17:35:17.297Z,58.0
2023-05-31T17:40:17.061Z,58.6
2023-05-31T17:45:17.387Z,58.7
2023-05-31T17:50:17.211Z,59.0
2023-05-31T17:55:17.238Z,59.3
2023-05-31T18:00:17.325Z,59.3
2023-05-31T18:05:17.242Z,59.3
2023-05-31T18:10:17.390Z,59.3
2023-05-31T18:15:18.045Z,59.9
2023-05-31T18:20:17.254Z,59.9
2023-05-31T18:25:17.387Z,60.0
2023-05-31T18:30:17.773Z,59.8
2023-05-31T18:35:18.933Z,59.6
2023-05-31T18:40:17.236Z,59.5
2023-05-31T18:45:17.550Z,59.5
2023-05-31T18:50:17.544Z,59.3
2023-05-31T18:55:17.205Z,59.4
2023-05-31T19:00:17.281Z,59.6
2023-05-31T19:05:17.683Z,59.8
2023-05-31T19:10:17.352Z,60.0
2023-05-31T19:15:18.126Z,60.0
2023-05-31T19:20:17.495Z,59.9
2023-05-31T19:25:17.633Z,59.9
2023-05-31T19:30:17.530Z,60.1
2023-05-31T19:35:17.285Z,60.5
2023-05-31T19:40:17.311Z,61.1
2023-05-31T19:45:17.475Z,61.3
2023-05-31T19:50:17.312Z,61.3
2023-05-31T19:55:17.420Z,61.1
2023-05-31T20:00:17.819Z,60.4
2023-05-31T20:05:17.496Z,60.5
2023-05-31T20:10:17.418Z,60.9
2023-05-31T20:15:17.592Z,61.3
2023-05-31T20:20:17.435Z,61.0
2023-05-31T20:25:18.864Z,60.6
2023-05-31T20:30:18.011Z,60.5
2023-05-31T20:35:18.167Z,60.5
2023-05-31T20:40:17.973Z,60.6
2023-05-31T20:45:18.090Z,60.6
2023-05-31T20:50:17.939Z,60.6
2023-05-31T20:55:18.056Z,60.5
2023-05-31T21:00:17.875Z,60.5
2023-05-31T21:05:18.189Z,60.7
2023-05-31T21:10:18.094Z,61.4
2023-05-31T21:15:18.976Z,61.7
2023-05-31T21:20:17.936Z,61.9
2023-05-31T21:25:18.206Z,61.5
2023-05-31T21:30:18.213Z,61.2
2023-05-31T21:35:18.048Z,61.0
2023-05-31T21:40:18.207Z,61.0
2023-05-31T21:45:18.260Z,61.0
2023-05-31T21:50:18.140Z,61.0
2023-05-31T21:55:18.263Z,61.1
2023-05-31T22:00:18.064Z,61.3
2023-05-31T22:05:18.102Z,61.4
2023-05-31T22:10:18.636Z,61.7
2023-05-31T22:15:17.109Z,61.9
2023-05-31T22:20:16.774Z,61.9
2023-05-31T22:25:17.082Z,61.9
2023-05-31T22:30:16.795Z,61.9
2023-05-31T22:35:16.939Z,62.0
2023-05-31T22:40:17.028Z,61.9
2023-05-31T22:45:17.146Z,61.6
2023-05-31T22:50:16.827Z,61.4
2023-05-31T22:55:17.101Z,61.3
2023-05-31T23:00:16.937Z,61.4
2023-05-31T23:05:16.924Z,61.5
2023-05-31T23:10:17.040Z,61.5
2023-05-31T23:15:18.189Z,61.5
2023-05-31T23:20:16.958Z,61.4
2023-05-31T23:25:17.139Z,61.4
2023-05-31T23:30:16.917Z,61.3
2023-05-31T23:35:17.036Z,61.4
2023-05-31T23:40:17.309Z,61.2
2023-05-31T23:45:17.387Z,61.3
2023-05-31T23:50:17.131Z,61.6
2023-05-31T23:55:17.199Z,61.6
